createdAt,value
2017-09-09T00:02:07.719Z,17.70
2017-09-09T00:04:36.738Z,17.80
2017-09-09T00:07:04.966Z,17.80
2017-09-09T00:09:33.199Z,17.70
2017-09-09T00:12:01.532Z,17.70
2017-09-09T00:14:29.750Z,17.70
2017-09-09T00:16:57.982Z,17.70
2017-09-09T00:19:26.246Z,17.70
2017-09-09T00:21:54.478Z,17.70
2017-09-09T00:24:22.713Z,17.70
2017-09-09T00:26:51.717Z,17.70
2017-09-09T00:29:20.735Z,17.70
2017-09-09T00:31:48.986Z,17.70
2017-09-09T00:34:17.989Z,17.60
2017-09-09T00:36:46.991Z,17.60
2017-09-09T00:39:16.073Z,17.60
2017-09-09T00:41:45.080Z,17.60
2017-09-09T00:44:13.338Z,17.60
2017-09-09T00:46:41.565Z,17.70
2017-09-09T00:49:09.799Z,17.70
2017-09-09T00:51:38.056Z,17.60
2017-09-09T00:54:06.280Z,17.70
2017-09-09T00:56:34.527Z,17.70
2017-09-09T00:59:02.752Z,17.60
2017-09-09T01:01:30.994Z,17.60
2017-09-09T01:03:59.229Z,17.60
2017-09-09T01:06:27.470Z,17.60
2017-09-09T01:08:55.694Z,17.60
2017-09-09T01:11:23.944Z,17.50
2017-09-09T01:13:52.170Z,17.50
2017-09-09T01:16:20.412Z,17.50
2017-09-09T01:18:49.405Z,17.40
2017-09-09T01:21:18.432Z,17.40
2017-09-09T01:23:46.665Z,17.40
2017-09-09T01:26:14.906Z,17.40
2017-09-09T01:28:43.134Z,17.40
2017-09-09T01:31:12.147Z,17.40
2017-09-09T01:33:40.384Z,17.40
2017-09-09T01:36:08.632Z,17.30
2017-09-09T01:38:36.866Z,17.40
2017-09-09T01:41:05.129Z,17.40
2017-09-09T01:43:33.348Z,17.40
2017-09-09T01:46:01.588Z,17.40
2017-09-09T01:48:29.818Z,17.40
2017-09-09T01:50:58.050Z,17.30
2017-09-09T01:53:26.292Z,17.30
2017-09-09T01:55:55.280Z,17.30
2017-09-09T01:58:23.525Z,17.30
2017-09-09T02:00:51.750Z,17.30
2017-09-09T02:03:20.769Z,17.30
2017-09-09T02:05:48.990Z,17.20
2017-09-09T02:08:17.228Z,17.20
2017-09-09T02:10:45.464Z,17.20
2017-09-09T02:13:14.478Z,17.20
2017-09-09T02:15:42.703Z,17.20
2017-09-09T02:18:10.949Z,17.20
2017-09-09T02:20:39.181Z,17.20
2017-09-09T02:23:08.194Z,17.10
2017-09-09T02:25:36.425Z,17.10
2017-09-09T02:28:04.874Z,17.20
2017-09-09T02:30:33.120Z,17.10
2017-09-09T02:33:01.371Z,17.10
2017-09-09T02:35:29.602Z,17.10
2017-09-09T02:37:57.853Z,17.10
2017-09-09T02:40:26.092Z,17.10
2017-09-09T02:42:54.323Z,17.20
2017-09-09T02:45:22.553Z,17.20
2017-09-09T02:47:51.570Z,17.10
2017-09-09T02:50:19.799Z,17.10
2017-09-09T02:52:48.042Z,17.20
2017-09-09T02:55:16.269Z,17.20
2017-09-09T02:57:44.521Z,17.10
2017-09-09T03:00:12.839Z,17.10
2017-09-09T03:02:41.039Z,17.20
2017-09-09T03:05:09.281Z,17.20
2017-09-09T03:07:38.277Z,17.10
2017-09-09T03:10:07.322Z,17.20
2017-09-09T03:12:35.554Z,17.10
2017-09-09T03:15:04.561Z,17.20
2017-09-09T03:17:32.799Z,17.20
2017-09-09T03:20:01.044Z,17.20
2017-09-09T03:22:29.272Z,17.20
2017-09-09T03:24:58.281Z,17.10
2017-09-09T03:27:26.514Z,17.10
2017-09-09T03:29:54.751Z,17.10
2017-09-09T03:32:22.985Z,17.10
2017-09-09T03:34:51.989Z,17.00
2017-09-09T03:37:20.214Z,17.00
2017-09-09T03:39:48.458Z,17.00
2017-09-09T03:42:16.681Z,17.00
2017-09-09T03:44:44.920Z,17.00
2017-09-09T03:47:13.157Z,17.00
2017-09-09T03:49:41.405Z,17.00
2017-09-09T03:52:09.630Z,17.00
2017-09-09T03:54:37.877Z,17.00
2017-09-09T03:57:06.875Z,16.80
2017-09-09T03:59:35.894Z,16.80
2017-09-09T04:02:04.122Z,16.80
2017-09-09T04:04:32.349Z,16.80
2017-09-09T04:07:00.609Z,16.70
2017-09-09T04:09:28.832Z,16.70
2017-09-09T04:11:57.100Z,16.60
2017-09-09T04:14:25.330Z,16.60
2017-09-09T04:16:54.337Z,16.50
2017-09-09T04:19:22.560Z,16.50
2017-09-09T04:21:50.805Z,16.50
2017-09-09T04:24:19.817Z,16.30
2017-09-09T04:26:48.060Z,16.30
2017-09-09T04:29:16.296Z,16.20
2017-09-09T04:31:45.308Z,16.10
2017-09-09T04:34:13.540Z,16.10
2017-09-09T04:36:41.801Z,16.00
2017-09-09T04:39:10.062Z,15.90
2017-09-09T04:41:39.048Z,15.70
2017-09-09T04:44:07.268Z,15.70
2017-09-09T04:46:35.514Z,15.70
2017-09-09T04:49:03.741Z,15.50
2017-09-09T04:51:32.752Z,15.30
2017-09-09T04:54:00.985Z,15.30
2017-09-09T04:56:29.240Z,15.20
2017-09-09T04:58:57.462Z,15.10
2017-09-09T05:01:26.490Z,14.90
2017-09-09T05:03:54.720Z,14.90
2017-09-09T05:06:23.712Z,14.90
2017-09-09T05:08:51.957Z,14.80
2017-09-09T05:11:20.187Z,14.80
2017-09-09T05:13:48.429Z,14.80
2017-09-09T05:16:16.659Z,14.80
2017-09-09T05:18:44.904Z,14.70
2017-09-09T05:21:13.905Z,14.70
2017-09-09T05:23:42.913Z,14.60
2017-09-09T05:26:11.141Z,14.60
2017-09-09T05:28:39.376Z,14.60
2017-09-09T05:31:07.608Z,14.70
2017-09-09T05:33:36.632Z,14.60
2017-09-09T05:36:04.853Z,14.60
2017-09-09T05:38:33.100Z,14.70
2017-09-09T05:41:01.333Z,14.70
2017-09-09T05:43:30.361Z,14.70
2017-09-09T05:45:58.584Z,14.70
2017-09-09T05:48:26.876Z,14.70
2017-09-09T05:50:56.187Z,14.70
2017-09-09T05:53:24.425Z,14.60
2017-09-09T05:55:52.659Z,14.60
2017-09-09T05:58:20.905Z,14.60
2017-09-09T06:00:49.204Z,14.60
2017-09-09T06:03:17.534Z,14.60
2017-09-09T06:05:45.804Z,14.60
2017-09-09T06:08:14.042Z,14.60
2017-09-09T06:10:42.289Z,14.60
2017-09-09T06:13:11.277Z,14.70
2017-09-09T06:15:40.398Z,14.60
2017-09-09T06:18:08.758Z,14.60
2017-09-09T06:20:38.042Z,14.70
2017-09-09T06:23:07.333Z,14.70
2017-09-09T06:25:35.771Z,14.70
2017-09-09T06:28:04.032Z,14.70
2017-09-09T06:30:32.315Z,14.80
2017-09-09T06:33:00.589Z,14.70
2017-09-09T06:35:29.581Z,14.80
2017-09-09T06:37:57.819Z,14.80
2017-09-09T06:40:26.119Z,14.90
2017-09-09T06:42:54.375Z,15.00
2017-09-09T06:45:22.608Z,15.10
2017-09-09T06:47:50.848Z,15.10
2017-09-09T06:50:19.084Z,15.10
2017-09-09T06:52:47.325Z,15.10
2017-09-09T06:55:15.573Z,15.20
2017-09-09T06:57:43.804Z,15.10
2017-09-09T07:00:12.044Z,15.20
2017-09-09T07:02:40.275Z,15.10
2017-09-09T07:05:08.525Z,15.10
2017-09-09T07:07:36.741Z,15.10
2017-09-09T07:10:05.762Z,15.20
2017-09-09T07:12:33.990Z,15.20
2017-09-09T07:15:02.225Z,15.20
2017-09-09T07:17:30.485Z,15.20
2017-09-09T07:19:58.717Z,15.20
2017-09-09T07:22:26.971Z,15.30
2017-09-09T07:24:55.198Z,15.20
2017-09-09T07:27:23.450Z,15.30
2017-09-09T07:29:52.445Z,15.40
2017-09-09T07:32:21.460Z,15.40
2017-09-09T07:34:49.685Z,15.40
2017-09-09T07:37:17.929Z,15.50
2017-09-09T07:39:46.161Z,15.60
2017-09-09T07:42:15.440Z,15.60
2017-09-09T07:44:43.984Z,15.60
2017-09-09T07:47:12.275Z,15.60
2017-09-09T07:49:40.509Z,15.60
2017-09-09T07:52:09.598Z,15.90
2017-09-09T07:54:38.606Z,16.10
2017-09-09T07:57:06.883Z,16.00
2017-09-09T07:59:35.258Z,16.20
2017-09-09T08:02:04.293Z,16.40
2017-09-09T08:04:32.539Z,16.40
2017-09-09T08:07:00.818Z,16.60
2017-09-09T08:09:29.052Z,16.70
2017-09-09T08:11:57.305Z,16.70
2017-09-09T08:14:25.583Z,16.90
2017-09-09T08:16:53.908Z,17.00
2017-09-09T08:19:22.136Z,17.00
2017-09-09T08:21:50.364Z,17.10
2017-09-09T08:24:18.604Z,17.20
2017-09-09T08:26:46.833Z,17.30
2017-09-09T08:29:15.088Z,17.60
2017-09-09T08:31:43.326Z,17.90
2017-09-09T08:34:11.582Z,18.30
2017-09-09T08:36:39.812Z,18.60
2017-09-09T08:39:08.132Z,18.90
2017-09-09T08:41:36.362Z,19.20
2017-09-09T08:44:05.381Z,19.30
2017-09-09T08:46:33.604Z,19.30
2017-09-09T08:49:01.916Z,19.20
2017-09-09T08:51:30.143Z,19.10
2017-09-09T08:53:58.378Z,18.90
2017-09-09T08:56:26.608Z,18.80
2017-09-09T08:58:54.844Z,18.40
2017-09-09T09:01:23.068Z,18.40
2017-09-09T09:03:52.084Z,18.50
2017-09-09T09:06:20.308Z,18.50
2017-09-09T09:08:48.553Z,18.20
2017-09-09T09:11:16.789Z,18.20
2017-09-09T09:13:45.031Z,18.20
2017-09-09T09:16:13.269Z,18.10
2017-09-09T09:18:41.520Z,18.10
2017-09-09T09:21:10.508Z,18.00
2017-09-09T09:23:39.502Z,18.00
2017-09-09T09:26:07.737Z,17.90
2017-09-09T09:28:35.960Z,17.90
2017-09-09T09:31:04.205Z,17.90
2017-09-09T09:33:32.440Z,17.90
2017-09-09T09:36:00.728Z,17.90
2017-09-09T09:38:28.956Z,17.90
2017-09-09T09:40:57.211Z,17.80
2017-09-09T09:43:25.445Z,17.70
2017-09-09T09:45:53.699Z,17.70
2017-09-09T09:48:22.681Z,17.60
2017-09-09T09:50:50.924Z,17.60
2017-09-09T09:53:19.157Z,17.50
2017-09-09T09:55:47.408Z,17.50
2017-09-09T09:58:16.402Z,17.50
2017-09-09T10:00:45.401Z,17.50
2017-09-09T10:03:13.640Z,17.50
2017-09-09T10:05:41.888Z,17.60
2017-09-09T10:08:10.125Z,17.70
2017-09-09T10:10:39.152Z,17.90
2017-09-09T10:13:07.380Z,17.90
2017-09-09T10:15:36.405Z,18.00
2017-09-09T10:18:04.640Z,18.00
2017-09-09T10:20:32.880Z,17.90
2017-09-09T10:23:01.110Z,17.80
2017-09-09T10:25:29.926Z,17.80
2017-09-09T10:27:58.177Z,17.70
2017-09-09T10:30:27.167Z,17.50
2017-09-09T10:32:55.408Z,17.40
2017-09-09T10:35:23.645Z,17.40
2017-09-09T10:37:51.896Z,17.20
2017-09-09T10:40:20.885Z,17.00
2017-09-09T10:42:49.144Z,16.90
2017-09-09T10:45:17.401Z,16.90
2017-09-09T10:47:46.479Z,16.90
2017-09-09T10:50:14.704Z,16.90
2017-09-09T10:52:43.708Z,17.00
2017-09-09T10:55:12.730Z,17.10
2017-09-09T10:57:40.982Z,17.10
2017-09-09T11:00:09.211Z,17.40
2017-09-09T11:02:37.452Z,17.80
2017-09-09T11:05:05.693Z,18.00
2017-09-09T11:07:34.709Z,18.50
2017-09-09T11:10:02.940Z,18.50
2017-09-09T11:12:31.188Z,18.90
2017-09-09T11:14:59.409Z,19.30
2017-09-09T11:17:27.652Z,19.60
2017-09-09T11:19:55.885Z,19.70
2017-09-09T11:22:24.980Z,19.70
2017-09-09T11:24:53.211Z,19.50
2017-09-09T11:27:21.493Z,19.40
2017-09-09T11:29:49.714Z,19.30
2017-09-09T11:32:17.941Z,19.60
2017-09-09T11:34:46.193Z,19.90
2017-09-09T11:37:14.419Z,20.30
2017-09-09T11:39:42.662Z,20.70
2017-09-09T11:42:10.895Z,21.00
2017-09-09T11:44:39.140Z,21.10
2017-09-09T11:47:08.157Z,21.20
2017-09-09T11:49:36.374Z,21.20
2017-09-09T11:52:04.603Z,21.40
2017-09-09T11:54:32.860Z,21.50
2017-09-09T11:57:01.084Z,21.60
2017-09-09T11:59:29.330Z,21.60
2017-09-09T12:01:57.556Z,21.70
2017-09-09T12:04:25.805Z,22.00
2017-09-09T12:06:54.051Z,21.90
2017-09-09T12:09:22.291Z,21.80
2017-09-09T12:11:55.378Z,21.80
2017-09-09T12:14:23.603Z,21.60
2017-09-09T12:16:51.859Z,21.50
2017-09-09T12:19:20.856Z,21.30
2017-09-09T12:21:49.081Z,21.30
2017-09-09T12:24:17.330Z,21.40
2017-09-09T12:26:45.566Z,21.20
2017-09-09T12:29:14.570Z,21.00
2017-09-09T12:31:42.803Z,21.00
2017-09-09T12:34:11.068Z,21.00
2017-09-09T12:36:39.291Z,21.10
2017-09-09T12:39:08.283Z,20.90
2017-09-09T12:41:37.292Z,20.90
2017-09-09T12:44:05.526Z,20.90
2017-09-09T12:46:34.768Z,21.00
2017-09-09T12:49:03.005Z,21.10
2017-09-09T12:51:31.296Z,21.30
2017-09-09T12:54:00.329Z,21.10
2017-09-09T12:56:28.565Z,21.10
2017-09-09T12:58:57.573Z,21.00
2017-09-09T13:01:25.820Z,21.00
2017-09-09T13:03:54.058Z,20.90
2017-09-09T13:06:22.305Z,20.60
2017-09-09T13:08:50.527Z,20.80
2017-09-09T13:11:18.777Z,20.80
2017-09-09T13:13:47.012Z,20.80
2017-09-09T13:16:16.031Z,20.70
2017-09-09T13:18:44.254Z,20.70
2017-09-09T13:21:12.508Z,20.50
2017-09-09T13:23:40.749Z,20.50
2017-09-09T13:26:08.988Z,20.50
2017-09-09T13:28:37.246Z,20.50
2017-09-09T13:31:05.469Z,20.50
2017-09-09T13:33:33.706Z,20.50
2017-09-09T13:36:01.965Z,20.50
2017-09-09T13:38:30.192Z,20.40
2017-09-09T13:40:58.557Z,20.40
2017-09-09T13:43:27.545Z,20.50
2017-09-09T13:45:56.568Z,20.60
2017-09-09T13:48:24.816Z,20.60
2017-09-09T13:50:53.829Z,20.80
2017-09-09T13:53:22.136Z,20.80
2017-09-09T13:55:50.357Z,20.80
2017-09-09T13:58:19.373Z,20.70
2017-09-09T14:00:48.391Z,20.60
2017-09-09T14:03:16.640Z,20.60
2017-09-09T14:05:45.629Z,20.60
2017-09-09T14:08:14.634Z,20.60
2017-09-09T14:10:42.855Z,20.50
2017-09-09T14:13:11.109Z,20.60
2017-09-09T14:15:39.336Z,20.50
2017-09-09T14:18:07.581Z,20.30
2017-09-09T14:20:35.812Z,20.20
2017-09-09T14:23:04.060Z,20.30
2017-09-09T14:25:32.282Z,20.30
2017-09-09T14:28:00.561Z,20.30
2017-09-09T14:30:28.792Z,20.30
2017-09-09T14:32:57.041Z,20.20
2017-09-09T14:35:25.266Z,20.20
2017-09-09T14:37:53.505Z,20.00
2017-09-09T14:40:21.732Z,20.00
2017-09-09T14:42:49.969Z,19.90
2017-09-09T14:45:18.966Z,19.90
2017-09-09T14:47:47.990Z,19.80
2017-09-09T14:50:16.221Z,19.80
2017-09-09T14:52:45.231Z,19.80
2017-09-09T14:55:14.231Z,19.80
2017-09-09T14:57:42.455Z,19.70
2017-09-09T15:00:10.702Z,19.80
2017-09-09T15:02:38.962Z,19.90
2017-09-09T15:05:07.304Z,19.90
2017-09-09T15:07:35.554Z,19.90
2017-09-09T15:10:03.767Z,19.90
2017-09-09T15:12:32.807Z,19.90
2017-09-09T15:15:01.052Z,19.90
2017-09-09T15:17:29.277Z,19.90
2017-09-09T15:19:57.512Z,19.80
2017-09-09T15:22:25.778Z,19.80
2017-09-09T15:24:54.018Z,19.80
2017-09-09T15:27:22.241Z,19.80
2017-09-09T15:29:50.492Z,19.70
2017-09-09T15:32:19.492Z,19.50
2017-09-09T15:34:48.495Z,19.40
2017-09-09T15:37:16.729Z,19.40
2017-09-09T15:39:44.968Z,19.40
2017-09-09T15:42:13.193Z,19.30
2017-09-09T15:44:41.436Z,19.30
2017-09-09T15:47:10.428Z,19.10
2017-09-09T15:49:38.674Z,19.10
2017-09-09T15:52:06.905Z,19.10
2017-09-09T15:54:35.162Z,19.00
2017-09-09T15:57:03.409Z,18.90
2017-09-09T15:59:31.686Z,18.90
2017-09-09T16:01:59.909Z,18.80
2017-09-09T16:04:28.133Z,18.80
2017-09-09T16:06:56.377Z,18.70
2017-09-09T16:09:24.601Z,18.70
2017-09-09T16:11:52.850Z,18.60
2017-09-09T16:14:21.864Z,18.60
2017-09-09T16:16:50.109Z,18.60
2017-09-09T16:19:19.105Z,18.50
2017-09-09T16:21:47.361Z,18.50
2017-09-09T16:24:15.596Z,18.50
2017-09-09T16:26:43.829Z,18.40
2017-09-09T16:29:12.058Z,18.30
2017-09-09T16:31:40.297Z,18.30
2017-09-09T16:34:08.528Z,18.30
2017-09-09T16:36:36.773Z,18.20
2017-09-09T16:39:05.004Z,18.20
2017-09-09T16:41:33.253Z,18.10
2017-09-09T16:44:01.480Z,18.00
2017-09-09T16:46:29.720Z,18.00
2017-09-09T16:48:58.720Z,17.90
2017-09-09T16:51:26.966Z,17.90
2017-09-09T16:53:55.197Z,17.90
2017-09-09T16:56:23.437Z,17.90
2017-09-09T16:58:52.425Z,17.80
2017-09-09T17:01:20.673Z,17.70
2017-09-09T17:03:48.902Z,17.70
2017-09-09T17:06:17.129Z,17.70
2017-09-09T17:08:45.381Z,17.60
2017-09-09T17:11:13.605Z,17.60
2017-09-09T17:13:42.624Z,17.50
2017-09-09T17:16:10.868Z,17.50
2017-09-09T17:18:39.105Z,17.40
2017-09-09T17:21:07.333Z,17.40
2017-09-09T17:23:36.336Z,17.30
2017-09-09T17:26:04.561Z,17.30
2017-09-09T17:28:32.806Z,17.30
2017-09-09T17:31:01.043Z,17.30
2017-09-09T17:33:29.281Z,17.20
2017-09-09T17:35:57.589Z,17.30
2017-09-09T17:38:25.829Z,17.30
2017-09-09T17:40:54.048Z,17.40
2017-09-09T17:43:23.060Z,17.30
2017-09-09T17:45:51.289Z,17.30
2017-09-09T17:48:19.523Z,17.30
2017-09-09T17:50:47.748Z,17.30
2017-09-09T17:53:15.987Z,17.30
2017-09-09T17:55:44.224Z,17.30
2017-09-09T17:58:12.472Z,17.30
2017-09-09T18:00:40.700Z,17.20
2017-09-09T18:03:08.928Z,17.30
2017-09-09T18:05:37.180Z,17.40
2017-09-09T18:08:05.404Z,17.40
2017-09-09T18:10:33.659Z,17.40
2017-09-09T18:13:01.901Z,17.30
2017-09-09T18:15:30.184Z,17.40
2017-09-09T18:17:58.412Z,17.40
2017-09-09T18:20:26.652Z,17.40
2017-09-09T18:22:54.884Z,17.40
2017-09-09T18:25:23.129Z,17.40
2017-09-09T18:27:51.360Z,17.40
2017-09-09T18:30:19.613Z,17.50
2017-09-09T18:32:47.839Z,17.50
2017-09-09T18:35:16.081Z,17.50
2017-09-09T18:37:44.317Z,17.60
2017-09-09T18:40:12.556Z,17.60
2017-09-09T18:42:40.781Z,17.50
2017-09-09T18:45:09.020Z,17.50
2017-09-09T18:47:38.018Z,17.50
2017-09-09T18:50:07.028Z,17.50
2017-09-09T18:52:35.254Z,17.50
2017-09-09T18:55:03.526Z,17.50
2017-09-09T18:57:31.759Z,17.50
2017-09-09T18:59:59.997Z,17.50
2017-09-09T19:02:28.224Z,17.50
2017-09-09T19:04:56.491Z,17.50
2017-09-09T19:07:24.713Z,17.60
2017-09-09T19:09:52.939Z,17.60
2017-09-09T19:12:21.184Z,17.50
2017-09-09T19:14:50.172Z,17.50
2017-09-09T19:17:19.743Z,17.50
2017-09-09T19:19:47.969Z,17.50
2017-09-09T19:22:16.207Z,17.50
2017-09-09T19:24:44.439Z,17.40
2017-09-09T19:27:12.729Z,17.30
2017-09-09T19:29:40.953Z,17.30
2017-09-09T19:32:09.197Z,17.30
2017-09-09T19:34:37.424Z,17.30
2017-09-09T19:37:06.437Z,17.20
2017-09-09T19:39:35.550Z,17.20
2017-09-09T19:42:03.830Z,17.20
2017-09-09T19:44:32.045Z,17.10
2017-09-09T19:47:00.292Z,17.10
2017-09-09T19:49:28.518Z,17.10
2017-09-09T19:51:56.768Z,17.10
2017-09-09T19:54:25.013Z,17.20
2017-09-09T19:56:53.248Z,17.20
2017-09-09T19:59:21.485Z,17.10
2017-09-09T20:01:49.746Z,17.20
2017-09-09T20:04:17.983Z,17.20
2017-09-09T20:06:46.237Z,17.10
2017-09-09T20:09:14.467Z,17.10
2017-09-09T20:11:42.689Z,17.20
2017-09-09T20:14:11.724Z,17.30
2017-09-09T20:16:39.950Z,17.20
2017-09-09T20:19:08.972Z,17.30
2017-09-09T20:21:37.189Z,17.30
2017-09-09T20:24:05.434Z,17.30
2017-09-09T20:26:33.657Z,17.40
2017-09-09T20:29:01.901Z,17.40
2017-09-09T20:31:30.128Z,17.40
2017-09-09T20:33:58.373Z,17.40
2017-09-09T20:36:26.612Z,17.40
2017-09-09T20:38:54.879Z,17.40
2017-09-09T20:41:23.100Z,17.40
2017-09-09T20:43:51.366Z,17.40
2017-09-09T20:46:19.645Z,17.40
2017-09-09T20:48:47.902Z,17.40
2017-09-09T20:51:16.123Z,17.30
2017-09-09T20:53:44.394Z,17.30
2017-09-09T20:56:12.617Z,17.30
2017-09-09T20:58:40.861Z,17.20
2017-09-09T21:01:09.861Z,17.20
2017-09-09T21:03:38.876Z,17.20
2017-09-09T21:06:07.104Z,17.20
2017-09-09T21:08:35.347Z,17.10
2017-09-09T21:11:03.577Z,17.10
2017-09-09T21:13:32.568Z,17.00
2017-09-09T21:16:00.834Z,17.00
2017-09-09T21:18:29.053Z,17.10
2017-09-09T21:20:57.296Z,17.00
2017-09-09T21:23:26.291Z,17.00
2017-09-09T21:25:55.313Z,17.00
2017-09-09T21:28:23.549Z,17.00
2017-09-09T21:30:52.558Z,16.90
2017-09-09T21:33:20.785Z,16.90
2017-09-09T21:35:49.032Z,16.80
2017-09-09T21:38:17.260Z,16.80
2017-09-09T21:40:45.537Z,16.70
2017-09-09T21:43:13.801Z,16.70
2017-09-09T21:45:42.052Z,16.70
2017-09-09T21:48:10.284Z,16.60
2017-09-09T21:50:38.524Z,16.50
2017-09-09T21:53:06.759Z,16.50
2017-09-09T21:55:35.011Z,16.50
2017-09-09T21:58:04.000Z,16.40
2017-09-09T22:00:33.016Z,16.40
2017-09-09T22:03:01.753Z,16.40
2017-09-09T22:05:29.997Z,16.40
2017-09-09T22:07:58.229Z,16.40
2017-09-09T22:10:27.241Z,16.30
2017-09-09T22:12:55.493Z,16.30
2017-09-09T22:15:24.506Z,16.30
2017-09-09T22:17:52.741Z,16.30
2017-09-09T22:20:20.969Z,16.20
2017-09-09T22:22:49.203Z,16.20
2017-09-09T22:25:18.200Z,16.10
2017-09-09T22:27:46.449Z,16.10
2017-09-09T22:30:14.677Z,16.10
2017-09-09T22:32:42.919Z,16.10
2017-09-09T22:35:11.150Z,16.10
2017-09-09T22:37:39.400Z,16.10
2017-09-09T22:40:08.262Z,16.00
2017-09-09T22:42:36.504Z,16.00
2017-09-09T22:45:04.726Z,16.00
2017-09-09T22:47:33.735Z,16.00
2017-09-09T22:50:01.966Z,16.00
2017-09-09T22:52:30.200Z,16.00
2017-09-09T22:54:58.429Z,16.00
2017-09-09T22:57:26.669Z,15.90
2017-09-09T22:59:54.893Z,15.90
2017-09-09T23:02:23.141Z,15.90
2017-09-09T23:04:51.359Z,15.90
2017-09-09T23:07:19.610Z,15.80
2017-09-09T23:09:47.847Z,15.70
2017-09-09T23:12:16.081Z,15.60
2017-09-09T23:14:44.308Z,15.60
2017-09-09T23:17:12.548Z,15.50
2017-09-09T23:19:40.777Z,15.60
2017-09-09T23:22:09.005Z,15.60
2017-09-09T23:24:37.257Z,15.60
2017-09-09T23:27:05.486Z,15.60
2017-09-09T23:29:33.728Z,15.50
2017-09-09T23:32:01.955Z,15.60
2017-09-09T23:34:30.204Z,15.60
2017-09-09T23:36:58.438Z,15.60
2017-09-09T23:39:26.678Z,15.70
2017-09-09T23:41:55.864Z,15.70
2017-09-09T23:44:24.126Z,15.80
2017-09-09T23:46:52.364Z,15.80
2017-09-09T23:49:20.609Z,15.80
2017-09-09T23:51:48.845Z,15.80
2017-09-09T23:54:17.089Z,15.80
2017-09-09T23:56:45.316Z,15.80
2017-09-09T23:59:13.560Z,15.70
